Time;durP1;ratioP1;P1;durP2;ratioP2;P2;SDS_P1;SDS_P2;PMS_P1;PMS_P2;Temp;Humidity;BMP_temperature;BMP_pressure;BME280_temperature;BME280_humidity;BME280_pressure;Samples;Min_cycle;Max_cycle;Signal;HPM_P1;HPM_P2
2023/03/13 00:02:08;;;;;;;34.80;6.75;;;8.90;99.90;;;;;;5052561;28;20040;-78
2023/03/13 00:04:33;;;;;;;32.25;6.05;;;9.00;99.90;;;;;;5049900;28;20117;-77
2023/03/13 00:06:59;;;;;;;29.90;5.70;;;9.00;99.90;;;;;;5047950;28;20516;-77
2023/03/13 00:09:26;;;;;;;27.58;5.35;;;8.90;99.90;;;;;;5054012;28;20392;-77
2023/03/13 00:11:52;;;;;;;27.13;6.63;;;8.90;99.90;;;;;;5049810;28;20041;-77
2023/03/13 00:14:18;;;;;;;34.63;5.20;;;8.90;99.90;;;;;;5052916;28;20083;-77
2023/03/13 00:16:43;;;;;;;29.60;5.93;;;8.90;99.90;;;;;;5038272;28;20083;-78
2023/03/13 00:19:09;;;;;;;31.20;5.93;;;8.90;99.90;;;;;;5052771;28;20036;-77
2023/03/13 00:21:39;;;;;;;25.25;6.05;;;8.90;99.90;;;;;;5034370;28;20044;-78
2023/03/13 00:24:06;;;;;;;34.92;5.82;;;8.90;99.90;;;;;;5054777;28;20423;-78
2023/03/13 00:26:31;;;;;;;38.92;6.53;;;8.90;99.90;;;;;;5054514;28;20077;-77
2023/03/13 00:28:57;;;;;;;34.88;5.82;;;8.90;99.90;;;;;;5035442;28;20499;-78
2023/03/13 00:31:25;;;;;;;22.25;5.53;;;8.90;99.90;;;;;;5032498;28;20512;-78
2023/03/13 00:33:54;;;;;;;34.50;7.18;;;8.90;99.90;;;;;;5049890;28;20400;-78
2023/03/13 00:36:24;;;;;;;32.50;5.80;;;8.90;99.90;;;;;;5033990;28;20170;-77
2023/03/13 00:38:50;;;;;;;28.90;5.50;;;8.90;99.90;;;;;;5054405;28;20033;-77
2023/03/13 00:41:22;;;;;;;27.52;5.07;;;8.90;99.90;;;;;;5052009;28;20079;-78
2023/03/13 00:43:48;;;;;;;34.40;6.67;;;8.90;99.90;;;;;;5034728;28;20063;-78
2023/03/13 00:46:19;;;;;;;26.80;5.72;;;8.80;99.90;;;;;;5044942;28;20052;-78
2023/03/13 00:48:45;;;;;;;27.02;4.80;;;8.80;99.90;;;;;;5052385;28;20040;-79
2023/03/13 00:51:13;;;;;;;30.10;6.15;;;8.90;99.90;;;;;;5044826;28;20043;-82
2023/03/13 00:53:38;;;;;;;23.75;4.72;;;8.90;99.90;;;;;;5024837;28;20392;-78
2023/03/13 00:56:07;;;;;;;24.65;5.57;;;8.80;99.90;;;;;;5057423;28;20119;-81
2023/03/13 00:58:36;;;;;;;28.05;5.72;;;8.80;99.90;;;;;;5049747;28;20478;-78
2023/03/13 01:01:10;;;;;;;26.20;4.80;;;8.80;99.90;;;;;;5050926;28;20116;-79
2023/03/13 01:03:37;;;;;;;22.35;4.88;;;8.80;99.90;;;;;;5048359;28;20052;-79
2023/03/13 01:06:05;;;;;;;27.38;5.63;;;8.80;99.90;;;;;;5044244;28;20037;-78
2023/03/13 01:08:31;;;;;;;29.58;5.57;;;8.80;99.90;;;;;;5028108;28;20376;-79
2023/03/13 01:11:17;;;;;;;26.10;6.00;;;8.80;99.90;;;;;;5036242;28;20024;-78
2023/03/13 01:13:43;;;;;;;23.95;4.75;;;8.80;99.90;;;;;;5040821;28;20435;-78
2023/03/13 01:16:17;;;;;;;26.55;5.28;;;8.80;99.90;;;;;;5052123;28;20047;-78
2023/03/13 01:18:45;;;;;;;29.67;5.75;;;8.80;99.90;;;;;;5050732;28;20507;-78
2023/03/13 01:21:12;;;;;;;25.77;6.13;;;8.80;99.90;;;;;;5045499;28;20081;-78
2023/03/13 01:23:37;;;;;;;29.83;6.28;;;8.80;99.90;;;;;;5051771;28;20094;-78
2023/03/13 01:26:07;;;;;;;24.13;5.03;;;8.80;99.90;;;;;;5051640;28;20037;-79
2023/03/13 01:28:34;;;;;;;29.10;5.53;;;8.80;99.90;;;;;;5049278;28;20052;-78
2023/03/13 01:31:08;;;;;;;22.23;5.13;;;8.80;99.90;;;;;;5052485;28;20043;-78
2023/03/13 01:33:34;;;;;;;31.15;5.95;;;8.80;99.90;;;;;;5048309;28;20028;-81
2023/03/13 01:36:03;;;;;;;26.50;5.60;;;8.80;99.90;;;;;;5035561;28;20134;-78
2023/03/13 01:38:29;;;;;;;32.08;5.65;;;8.80;99.90;;;;;;5050474;28;20033;-78
2023/03/13 01:40:54;;;;;;;30.75;5.85;;;8.80;99.90;;;;;;5070368;28;20144;-80
2023/03/13 01:43:25;;;;;;;32.40;5.72;;;8.80;99.90;;;;;;5049706;28;20063;-78
2023/03/13 01:46:01;;;;;;;30.02;5.60;;;8.80;99.90;;;;;;5048489;28;20049;-78
2023/03/13 01:48:42;;;;;;;31.55;6.15;;;8.90;99.90;;;;;;5029353;28;20048;-78
2023/03/13 01:51:13;;;;;;;33.28;5.57;;;8.80;99.90;;;;;;5045057;28;20037;-78
2023/03/13 01:53:42;;;;;;;24.90;5.47;;;8.90;99.90;;;;;;5028684;28;20550;-78
2023/03/13 01:56:14;;;;;;;24.55;5.78;;;8.80;99.90;;;;;;5053419;28;20111;-78
2023/03/13 01:58:40;;;;;;;22.05;5.10;;;8.90;99.90;;;;;;5054316;28;20041;-78
2023/03/13 02:01:05;;;;;;;27.15;5.97;;;8.80;99.90;;;;;;5056084;28;20109;-78
2023/03/13 02:03:33;;;;;;;23.70;5.55;;;8.80;99.90;;;;;;5054910;28;20036;-79
2023/03/13 02:06:00;;;;;;;19.85;5.93;;;8.80;99.90;;;;;;5055203;28;20040;-81
2023/03/13 02:08:39;;;;;;;26.48;6.13;;;8.80;99.90;;;;;;5047660;28;20047;-78
2023/03/13 02:11:28;;;;;;;27.30;5.68;;;8.80;99.90;;;;;;5036040;28;20488;-80
2023/03/13 02:13:55;;;;;;;23.90;6.07;;;8.80;99.90;;;;;;5046974;28;20048;-78
2023/03/13 02:16:21;;;;;;;19.95;5.18;;;8.80;99.90;;;;;;5053764;28;20051;-78
2023/03/13 02:18:47;;;;;;;15.90;5.00;;;8.80;99.90;;;;;;5055505;28;20061;-78
2023/03/13 02:21:46;;;;;;;19.63;5.72;;;8.80;99.90;;;;;;5053739;28;20050;-78
2023/03/13 02:24:55;;;;;;;22.38;5.18;;;8.80;99.90;;;;;;5044449;28;20515;-80
2023/03/13 02:27:21;;;;;;;19.17;4.65;;;8.80;99.90;;;;;;5042768;28;20049;-79
2023/03/13 02:29:47;;;;;;;22.75;5.07;;;8.80;99.90;;;;;;5056265;28;20399;-78
2023/03/13 02:32:14;;;;;;;14.10;4.22;;;8.80;99.90;;;;;;5056064;28;20077;-79
2023/03/13 02:34:42;;;;;;;13.52;4.45;;;8.80;99.90;;;;;;5052919;28;20041;-80
2023/03/13 02:37:11;;;;;;;12.25;3.90;;;8.90;99.90;;;;;;5055791;28;20064;-79
2023/03/13 02:39:40;;;;;;;15.77;5.00;;;8.90;99.90;;;;;;5056017;28;20091;-79
2023/03/13 02:42:06;;;;;;;15.85;4.80;;;8.90;99.90;;;;;;5055668;28;20047;-80
2023/03/13 02:44:39;;;;;;;16.73;4.10;;;8.90;99.90;;;;;;5050538;28;20413;-79
2023/03/13 02:47:05;;;;;;;16.88;4.70;;;8.90;99.90;;;;;;5036400;28;20036;-79
2023/03/13 02:49:31;;;;;;;12.25;4.18;;;9.00;99.90;;;;;;5055314;28;20037;-79
2023/03/13 02:52:08;;;;;;;11.75;4.05;;;9.00;99.90;;;;;;5051872;28;20032;-80
2023/03/13 02:54:37;;;;;;;9.70;3.88;;;9.00;99.90;;;;;;5046770;28;20033;-80
2023/03/13 02:57:03;;;;;;;12.52;4.20;;;9.00;99.90;;;;;;5055138;28;20111;-79
2023/03/13 02:59:30;;;;;;;15.05;4.65;;;8.90;99.90;;;;;;5055452;28;20382;-79
2023/03/13 03:01:55;;;;;;;13.85;3.65;;;9.10;99.90;;;;;;5073405;28;20039;-79
2023/03/13 03:04:22;;;;;;;11.50;3.63;;;9.20;99.90;;;;;;5073175;28;20032;-79
2023/03/13 03:06:48;;;;;;;10.75;3.88;;;9.20;99.90;;;;;;5055257;28;20033;-80
2023/03/13 03:09:14;;;;;;;10.73;3.70;;;9.20;99.90;;;;;;5038763;28;20045;-79
2023/03/13 03:11:40;;;;;;;11.00;4.43;;;9.20;99.90;;;;;;5038789;28;20044;-79
2023/03/13 03:14:06;;;;;;;13.10;4.00;;;9.30;99.90;;;;;;5055679;28;20036;-79
2023/03/13 03:16:32;;;;;;;8.30;3.47;;;9.30;99.90;;;;;;5055463;28;20412;-79
2023/03/13 03:18:57;;;;;;;8.90;4.03;;;9.30;99.90;;;;;;5030450;28;20037;-79
2023/03/13 03:21:23;;;;;;;10.65;3.65;;;9.30;99.90;;;;;;5054416;28;20040;-81
2023/03/13 03:23:49;;;;;;;10.30;4.07;;;9.40;99.90;;;;;;5054810;28;20040;-79
2023/03/13 03:26:15;;;;;;;8.27;3.47;;;9.40;99.90;;;;;;5057944;28;20513;-79
2023/03/13 03:28:40;;;;;;;11.07;4.22;;;9.40;99.90;;;;;;5038462;28;20068;-79
2023/03/13 03:31:09;;;;;;;8.43;3.58;;;9.50;99.90;;;;;;5053157;28;20074;-79
2023/03/13 03:33:35;;;;;;;7.93;3.28;;;9.50;99.90;;;;;;5048693;28;20507;-79
2023/03/13 03:36:12;;;;;;;9.93;4.07;;;9.50;99.90;;;;;;5054710;28;20037;-79
2023/03/13 03:38:39;;;;;;;8.23;4.20;;;9.60;99.90;;;;;;5043057;28;20447;-79
2023/03/13 03:43:33;;;;;;;7.45;3.80;;;9.60;99.90;;;;;;5091473;28;20036;-63
2023/03/13 03:45:58;;;;;;;6.85;3.45;;;9.70;99.90;;;;;;5072432;28;20044;-63
2023/03/13 03:48:24;;;;;;;7.53;3.67;;;9.70;99.90;;;;;;5072659;28;20047;-62
2023/03/13 03:50:49;;;;;;;7.38;4.00;;;9.70;99.90;;;;;;5073002;28;20063;-64
2023/03/13 03:53:15;;;;;;;6.22;3.50;;;9.80;99.90;;;;;;5095509;28;20489;-64
2023/03/13 03:55:41;;;;;;;7.43;3.67;;;9.90;99.90;;;;;;5092207;28;20028;-63
2023/03/13 03:58:06;;;;;;;7.55;3.40;;;9.90;99.90;;;;;;5095345;28;20043;-63
2023/03/13 04:00:32;;;;;;;7.82;3.50;;;9.90;99.90;;;;;;5090443;28;20077;-62
2023/03/13 04:02:58;;;;;;;7.60;3.63;;;9.90;99.90;;;;;;5090601;28;20035;-64
2023/03/13 04:05:23;;;;;;;8.82;3.97;;;10.00;99.90;;;;;;5093110;28;20477;-64
2023/03/13 04:07:49;;;;;;;5.45;3.40;;;10.00;99.90;;;;;;5097237;28;20047;-63
2023/03/13 04:10:15;;;;;;;6.47;3.40;;;10.10;99.90;;;;;;5092886;28;20066;-63
2023/03/13 04:12:41;;;;;;;8.75;4.18;;;10.10;99.90;;;;;;5099554;28;20508;-63
2023/03/13 04:15:07;;;;;;;7.22;4.13;;;10.10;99.90;;;;;;5093474;28;20055;-64
2023/03/13 04:17:33;;;;;;;9.30;4.18;;;10.20;99.90;;;;;;5092728;28;20043;-63
2023/03/13 04:19:59;;;;;;;5.75;3.53;;;10.10;99.90;;;;;;5094055;28;20032;-63
2023/03/13 04:22:25;;;;;;;8.85;4.47;;;10.20;99.90;;;;;;5093121;28;20124;-64
2023/03/13 04:24:51;;;;;;;9.75;4.30;;;10.20;99.90;;;;;;5095350;28;20295;-64
2023/03/13 04:27:17;;;;;;;6.85;3.97;;;10.20;99.90;;;;;;5072431;28;20043;-64
2023/03/13 04:29:43;;;;;;;8.98;4.38;;;10.30;99.90;;;;;;5094477;28;20061;-65
2023/03/13 04:32:08;;;;;;;8.50;3.45;;;10.30;99.90;;;;;;5090695;28;20062;-63
2023/03/13 04:34:34;;;;;;;7.35;4.75;;;10.40;99.90;;;;;;5091342;28;20086;-63
2023/03/13 04:37:00;;;;;;;8.50;4.10;;;10.40;99.90;;;;;;5088769;28;20032;-64
2023/03/13 04:39:25;;;;;;;11.30;5.03;;;10.40;99.90;;;;;;5090290;28;20097;-63
2023/03/13 04:41:52;;;;;;;8.75;4.78;;;10.40;99.90;;;;;;5089839;28;20118;-63
2023/03/13 04:44:18;;;;;;;10.18;4.95;;;10.50;99.90;;;;;;5090660;28;20040;-64
2023/03/13 04:46:43;;;;;;;8.30;5.32;;;10.60;99.90;;;;;;5095295;28;20489;-63
2023/03/13 04:49:09;;;;;;;10.52;5.88;;;10.60;99.90;;;;;;5090541;28;20048;-64
2023/03/13 04:51:35;;;;;;;9.18;5.20;;;10.60;99.90;;;;;;5085136;28;20032;-63
2023/03/13 04:54:00;;;;;;;8.70;4.82;;;10.70;99.90;;;;;;5088290;28;20032;-63
2023/03/13 04:56:26;;;;;;;13.05;5.55;;;10.80;99.90;;;;;;5089344;28;20036;-63
2023/03/13 04:58:52;;;;;;;10.93;5.60;;;10.80;99.90;;;;;;5090057;28;20036;-63
2023/03/13 05:01:18;;;;;;;10.00;5.80;;;10.90;99.90;;;;;;5088987;28;20055;-64
2023/03/13 05:03:44;;;;;;;10.50;5.53;;;10.90;99.90;;;;;;5084795;28;20036;-62
2023/03/13 05:06:10;;;;;;;9.68;5.90;;;11.00;99.90;;;;;;5089076;28;20494;-63
2023/03/13 05:08:36;;;;;;;10.13;5.43;;;11.00;99.90;;;;;;5102861;28;20044;-64
2023/03/13 05:11:02;;;;;;;9.95;5.82;;;11.00;99.90;;;;;;5091377;28;20502;-63
2023/03/13 05:13:27;;;;;;;8.27;5.18;;;11.10;99.90;;;;;;5094096;28;20039;-64
2023/03/13 05:15:53;;;;;;;8.73;5.25;;;11.10;99.90;;;;;;5084518;28;20442;-63
2023/03/13 05:18:19;;;;;;;10.00;5.72;;;11.10;99.90;;;;;;5087722;28;20135;-63
2023/03/13 05:20:44;;;;;;;9.93;6.20;;;11.10;99.90;;;;;;5091468;28;20359;-64
2023/03/13 05:23:10;;;;;;;7.88;5.78;;;11.20;99.90;;;;;;5094221;28;20097;-65
2023/03/13 05:25:36;;;;;;;12.18;6.28;;;11.20;99.90;;;;;;5090760;28;20033;-63
2023/03/13 05:28:01;;;;;;;8.30;5.93;;;11.20;99.90;;;;;;5089760;28;20032;-64
2023/03/13 05:30:27;;;;;;;11.20;6.88;;;11.20;99.90;;;;;;5092042;28;20387;-64
2023/03/13 05:32:53;;;;;;;10.40;5.75;;;11.20;99.90;;;;;;5093917;28;20036;-64
2023/03/13 05:35:18;;;;;;;12.52;6.00;;;11.00;99.90;;;;;;5092292;28;20104;-64
2023/03/13 05:37:47;;;;;;;12.02;6.10;;;11.30;99.90;;;;;;5094635;28;20036;-64
2023/03/13 05:40:13;;;;;;;10.55;6.10;;;11.40;99.90;;;;;;5095469;28;20048;-64
2023/03/13 05:42:39;;;;;;;10.00;6.28;;;11.40;99.90;;;;;;5106128;28;20480;-64
2023/03/13 05:45:05;;;;;;;15.20;6.43;;;11.40;99.90;;;;;;5090781;28;20133;-64
2023/03/13 05:47:31;;;;;;;10.25;5.90;;;11.50;99.90;;;;;;5091120;28;20032;-64
2023/03/13 05:49:56;;;;;;;9.18;5.57;;;11.50;99.90;;;;;;5090985;28;20406;-64
2023/03/13 05:52:22;;;;;;;10.02;6.03;;;11.50;99.90;;;;;;5081818;28;20500;-63
2023/03/13 05:54:48;;;;;;;9.50;5.35;;;11.50;99.90;;;;;;5080205;28;20182;-63
2023/03/13 05:57:13;;;;;;;10.02;5.63;;;11.60;99.90;;;;;;5091606;28;20044;-63
2023/03/13 05:59:39;;;;;;;10.00;5.60;;;11.60;99.90;;;;;;5090434;28;20040;-63
2023/03/13 06:02:04;;;;;;;9.98;5.07;;;11.60;99.90;;;;;;5085995;28;20167;-63
2023/03/13 06:04:30;;;;;;;12.02;5.95;;;11.60;99.90;;;;;;5090970;28;20044;-63
2023/03/13 06:06:55;;;;;;;9.80;5.68;;;11.70;99.90;;;;;;5093661;28;20032;-63
2023/03/13 06:09:21;;;;;;;10.15;5.50;;;11.70;99.90;;;;;;5101717;28;20219;-64
2023/03/13 06:11:47;;;;;;;11.30;5.90;;;11.70;99.90;;;;;;5079654;28;20117;-64
2023/03/13 06:14:12;;;;;;;11.68;5.85;;;11.80;99.90;;;;;;5093161;28;20040;-63
2023/03/13 06:16:38;;;;;;;11.48;5.70;;;11.80;99.90;;;;;;5092567;28;20071;-63
2023/03/13 06:19:04;;;;;;;11.27;5.45;;;11.80;99.90;;;;;;5097495;28;20044;-63
2023/03/13 06:21:29;;;;;;;12.70;6.28;;;11.90;99.90;;;;;;5095162;28;20572;-64
2023/03/13 06:23:55;;;;;;;11.60;5.85;;;11.90;99.90;;;;;;5089684;28;20044;-64
2023/03/13 06:26:23;;;;;;;12.63;6.03;;;11.90;99.90;;;;;;5091655;28;20486;-64
2023/03/13 06:28:49;;;;;;;14.25;5.47;;;12.00;99.90;;;;;;5091381;28;20032;-63
2023/03/13 06:31:14;;;;;;;14.88;5.22;;;12.00;99.90;;;;;;5070199;28;20051;-63
2023/03/13 06:33:40;;;;;;;13.63;5.95;;;12.00;99.90;;;;;;5081041;28;20466;-64
2023/03/13 06:36:06;;;;;;;12.88;5.15;;;12.00;99.90;;;;;;5086978;28;20032;-64
2023/03/13 06:38:32;;;;;;;12.60;5.32;;;12.00;99.90;;;;;;5082326;28;20037;-63
2023/03/13 06:40:57;;;;;;;13.48;5.15;;;12.00;99.90;;;;;;5088905;28;20043;-63
2023/03/13 06:43:23;;;;;;;14.18;4.50;;;12.00;99.90;;;;;;5092648;28;20032;-63
2023/03/13 06:45:49;;;;;;;15.75;5.07;;;12.10;99.90;;;;;;5093127;28;20123;-64
2023/03/13 06:48:14;;;;;;;14.45;4.88;;;12.10;99.90;;;;;;5092383;28;20036;-64
2023/03/13 06:50:41;;;;;;;12.18;4.72;;;12.00;99.90;;;;;;5092823;28;20521;-63
2023/03/13 06:53:12;;;;;;;16.10;4.55;;;12.00;99.90;;;;;;5093215;28;20024;-65
2023/03/13 06:55:37;;;;;;;16.33;4.82;;;12.10;99.90;;;;;;5084463;28;20445;-65
2023/03/13 06:58:03;;;;;;;14.98;4.65;;;12.10;99.90;;;;;;5074795;28;20076;-64
2023/03/13 07:00:28;;;;;;;17.58;5.10;;;12.20;99.90;;;;;;5077233;28;20040;-64
2023/03/13 07:02:54;;;;;;;14.50;4.13;;;12.20;99.90;;;;;;5089301;28;20033;-64
2023/03/13 07:05:20;;;;;;;12.50;4.22;;;12.20;99.90;;;;;;5091370;28;20431;-64
2023/03/13 07:07:45;;;;;;;11.35;4.10;;;12.20;99.90;;;;;;5081211;28;20048;-64
2023/03/13 07:10:11;;;;;;;9.75;3.67;;;12.20;99.90;;;;;;5095095;28;20089;-64
2023/03/13 07:12:37;;;;;;;9.73;3.70;;;12.30;99.90;;;;;;5095783;28;20486;-64
2023/03/13 07:15:03;;;;;;;14.70;3.95;;;12.30;99.90;;;;;;5077399;28;20032;-65
2023/03/13 07:17:29;;;;;;;13.60;3.55;;;12.30;99.90;;;;;;5092187;28;20032;-64
2023/03/13 07:19:55;;;;;;;12.50;4.05;;;12.40;99.90;;;;;;5084670;28;20383;-64
2023/03/13 07:22:20;;;;;;;9.35;3.72;;;12.40;99.90;;;;;;5092148;28;20489;-64
2023/03/13 07:24:46;;;;;;;9.77;3.42;;;12.40;99.90;;;;;;5088750;28;20039;-64
2023/03/13 07:27:12;;;;;;;12.63;4.30;;;12.40;99.90;;;;;;5091247;28;20535;-64
2023/03/13 07:29:38;;;;;;;11.45;3.85;;;12.40;99.90;;;;;;5074385;28;20473;-64
2023/03/13 07:32:04;;;;;;;9.45;3.15;;;12.40;99.90;;;;;;5066495;28;20085;-64
2023/03/13 07:34:29;;;;;;;9.60;3.35;;;12.40;99.90;;;;;;5070761;28;20047;-64
2023/03/13 07:36:55;;;;;;;11.00;3.47;;;12.50;99.90;;;;;;5087058;28;20501;-64
2023/03/13 07:39:20;;;;;;;15.63;3.50;;;12.50;99.90;;;;;;5091931;28;20036;-64
2023/03/13 07:41:46;;;;;;;10.63;3.35;;;12.50;99.90;;;;;;5092548;28;20032;-64
2023/03/13 07:44:12;;;;;;;12.70;3.58;;;12.50;99.90;;;;;;5073766;28;20093;-64
2023/03/13 07:46:37;;;;;;;9.75;3.25;;;12.60;99.90;;;;;;5099517;28;20086;-64
2023/03/13 07:49:03;;;;;;;10.10;3.70;;;12.60;99.90;;;;;;5078833;28;20042;-64
2023/03/13 07:51:28;;;;;;;10.23;3.58;;;12.60;99.90;;;;;;5091345;28;20086;-64
2023/03/13 07:53:54;;;;;;;9.15;3.30;;;12.60;99.90;;;;;;5099531;28;20111;-64
2023/03/13 07:56:21;;;;;;;6.47;3.40;;;12.60;99.90;;;;;;5073553;28;20112;-64
2023/03/13 07:58:47;;;;;;;5.20;2.78;;;12.60;99.90;;;;;;5082592;28;20111;-64
2023/03/13 08:01:25;;;;;;;9.00;3.22;;;12.60;99.90;;;;;;5092152;28;20387;-64
2023/03/13 08:03:53;;;;;;;8.25;3.05;;;12.60;99.90;;;;;;5095472;28;20136;-64
2023/03/13 08:06:23;;;;;;;9.15;3.33;;;12.60;99.90;;;;;;5065159;28;20052;-64
2023/03/13 08:08:50;;;;;;;6.28;2.85;;;12.60;99.90;;;;;;5089482;28;20068;-64
2023/03/13 08:11:23;;;;;;;6.88;2.97;;;12.50;99.90;;;;;;5093474;28;20458;-64
2023/03/13 08:13:49;;;;;;;8.50;3.30;;;12.50;99.90;;;;;;5093170;28;20027;-64
2023/03/13 08:16:20;;;;;;;9.18;3.92;;;12.50;99.90;;;;;;5092893;28;20047;-64
2023/03/13 08:18:48;;;;;;;6.40;2.97;;;12.40;99.90;;;;;;5086540;28;20401;-64
2023/03/13 08:21:15;;;;;;;8.07;3.28;;;12.40;99.90;;;;;;5097667;28;20130;-64
2023/03/13 08:23:41;;;;;;;8.20;3.40;;;12.40;99.90;;;;;;5090479;28;20032;-64
2023/03/13 08:26:25;;;;;;;7.25;3.08;;;12.40;99.90;;;;;;5074158;28;20062;-64
2023/03/13 08:28:56;;;;;;;6.72;3.00;;;12.50;99.90;;;;;;5094756;28;20036;-64
2023/03/13 08:31:24;;;;;;;4.78;3.15;;;12.50;99.90;;;;;;5091284;28;20042;-64
2023/03/13 08:33:50;;;;;;;8.25;2.88;;;12.50;99.90;;;;;;5091255;28;20028;-64
2023/03/13 08:36:23;;;;;;;8.45;2.95;;;12.50;99.90;;;;;;5090041;28;20482;-64
2023/03/13 08:38:50;;;;;;;7.05;2.72;;;12.50;99.90;;;;;;5076269;28;20042;-64
2023/03/13 08:41:18;;;;;;;6.85;2.83;;;12.50;99.90;;;;;;5098169;28;20031;-64
2023/03/13 08:43:44;;;;;;;5.68;2.60;;;12.50;99.90;;;;;;5090634;28;20107;-64
2023/03/13 08:46:10;;;;;;;5.50;2.78;;;12.60;99.90;;;;;;5086990;28;20406;-65
2023/03/13 08:48:35;;;;;;;8.48;2.90;;;12.60;99.90;;;;;;5090238;28;20036;-64
2023/03/13 08:51:05;;;;;;;6.60;2.60;;;12.70;99.90;;;;;;5098962;28;20108;-64
2023/03/13 08:53:32;;;;;;;7.57;2.60;;;12.80;99.90;;;;;;5092246;28;20028;-64
2023/03/13 08:55:58;;;;;;;10.10;2.65;;;12.80;99.90;;;;;;5095715;28;20106;-65
2023/03/13 08:58:24;;;;;;;11.52;2.88;;;12.80;99.90;;;;;;5097951;28;20032;-64
2023/03/13 09:00:49;;;;;;;9.38;2.83;;;12.90;99.90;;;;;;5094915;28;20040;-65
2023/03/13 09:03:16;;;;;;;6.72;2.88;;;13.00;99.90;;;;;;5072234;28;20035;-64
2023/03/13 09:05:42;;;;;;;6.75;2.90;;;13.10;99.90;;;;;;5093033;28;20062;-65
2023/03/13 09:08:08;;;;;;;10.00;2.83;;;13.20;99.90;;;;;;5091716;28;20125;-65
2023/03/13 09:10:34;;;;;;;7.03;3.03;;;13.10;99.90;;;;;;5100061;28;20079;-65
2023/03/13 09:13:00;;;;;;;8.20;2.67;;;13.10;99.90;;;;;;5095371;28;20051;-64
2023/03/13 09:15:25;;;;;;;10.63;3.13;;;13.10;99.90;;;;;;5099130;28;20039;-65
2023/03/13 09:17:51;;;;;;;10.05;2.40;;;13.10;99.90;;;;;;5089998;28;20040;-65
2023/03/13 09:20:17;;;;;;;6.43;2.50;;;13.10;99.90;;;;;;5096484;28;20044;-65
2023/03/13 09:22:44;;;;;;;9.00;2.50;;;13.10;99.90;;;;;;5091025;28;20040;-65
2023/03/13 09:25:10;;;;;;;8.55;2.85;;;13.10;99.90;;;;;;5090181;28;20501;-65
2023/03/13 09:27:36;;;;;;;9.63;2.53;;;13.10;99.90;;;;;;5090076;28;20040;-65
2023/03/13 09:30:01;;;;;;;10.10;2.13;;;13.10;99.90;;;;;;5090979;28;20424;-65
2023/03/13 09:32:27;;;;;;;4.28;1.83;;;13.10;99.90;;;;;;5091534;28;20066;-65
2023/03/13 09:34:52;;;;;;;3.95;2.00;;;13.00;99.90;;;;;;5092771;28;20039;-65
2023/03/13 09:37:18;;;;;;;5.95;2.15;;;13.10;99.90;;;;;;5099899;28;20036;-65
2023/03/13 09:39:44;;;;;;;7.05;2.35;;;13.00;99.90;;;;;;5097141;28;20047;-65
2023/03/13 09:42:14;;;;;;;6.40;2.13;;;13.00;99.90;;;;;;5072572;22;20033;-62
2023/03/13 09:44:51;;;;;;;4.32;2.13;;;13.10;99.90;;;;;;5028376;28;20052;-62
2023/03/13 09:47:37;;;;;;;5.72;1.77;;;13.10;99.90;;;;;;5039324;28;20045;-62
2023/03/13 09:50:12;;;;;;;8.93;2.58;;;13.10;99.90;;;;;;5047536;28;20215;-62
2023/03/13 09:52:40;;;;;;;6.63;2.10;;;13.30;99.90;;;;;;5040925;28;20542;-62
2023/03/13 09:55:20;;;;;;;6.78;2.17;;;13.30;99.90;;;;;;5045190;28;20166;-62
2023/03/13 09:57:50;;;;;;;14.13;2.45;;;13.50;99.90;;;;;;5032403;28;20138;-62
2023/03/13 10:00:24;;;;;;;8.10;2.20;;;13.60;99.90;;;;;;5034659;28;20033;-62
2023/03/13 10:03:07;;;;;;;7.38;2.47;;;13.70;99.90;;;;;;5045375;28;20048;-62
2023/03/13 10:05:33;;;;;;;9.70;2.45;;;13.90;99.90;;;;;;5053887;28;20440;-62
2023/03/13 10:08:27;;;;;;;10.57;2.38;;;13.90;99.90;;;;;;5048285;28;20041;-63
2023/03/13 10:11:05;;;;;;;7.97;2.60;;;13.90;99.90;;;;;;5019054;28;20049;-62
2023/03/13 10:13:54;;;;;;;8.10;2.15;;;13.90;99.90;;;;;;5052617;28;20033;-62
2023/03/13 10:16:36;;;;;;;9.02;2.17;;;13.90;99.90;;;;;;5042307;28;20033;-62
2023/03/13 10:19:14;;;;;;;7.70;2.40;;;13.80;99.90;;;;;;5024334;28;20041;-62
2023/03/13 10:21:42;;;;;;;8.13;2.58;;;13.70;99.90;;;;;;5053095;28;20033;-62
2023/03/13 10:24:31;;;;;;;8.20;2.10;;;13.80;99.90;;;;;;5053573;28;20037;-62
2023/03/13 10:26:57;;;;;;;11.40;2.40;;;13.80;99.90;;;;;;5046109;28;20041;-62
2023/03/13 10:29:24;;;;;;;9.32;2.92;;;13.80;99.90;;;;;;5048366;28;20036;-62
2023/03/13 10:31:59;;;;;;;8.05;2.40;;;13.80;99.90;;;;;;5028918;28;20033;-62
2023/03/13 10:34:27;;;;;;;11.40;2.72;;;13.70;99.90;;;;;;5043562;28;20311;-62
2023/03/13 10:36:59;;;;;;;5.60;2.00;;;13.80;99.90;;;;;;5052553;28;20040;-62
2023/03/13 10:39:27;;;;;;;6.50;2.05;;;13.80;99.90;;;;;;5049940;28;20076;-62
2023/03/13 10:42:07;;;;;;;8.55;2.30;;;13.90;99.90;;;;;;5048672;28;20086;-62
2023/03/13 10:44:32;;;;;;;9.30;2.63;;;13.90;99.90;;;;;;5042327;28;20056;-62
2023/03/13 10:47:01;;;;;;;11.55;2.70;;;13.90;99.90;;;;;;5052514;28;20040;-63
2023/03/13 10:49:27;;;;;;;12.10;2.50;;;13.90;99.90;;;;;;5041367;28;20068;-62
2023/03/13 10:51:59;;;;;;;6.60;2.53;;;13.90;99.90;;;;;;5053154;28;20040;-62
2023/03/13 10:54:25;;;;;;;7.78;1.95;;;14.00;99.90;;;;;;5051311;28;20040;-62
2023/03/13 10:57:05;;;;;;;7.85;2.38;;;14.00;99.90;;;;;;5029818;28;20045;-62
2023/03/13 10:59:31;;;;;;;5.97;2.38;;;14.10;99.90;;;;;;5036076;28;20068;-62
2023/03/13 11:02:00;;;;;;;9.73;2.38;;;14.10;99.90;;;;;;5037177;28;20083;-62
2023/03/13 11:04:36;;;;;;;7.50;2.10;;;14.20;99.90;;;;;;5035109;28;20048;-62
2023/03/13 11:07:24;;;;;;;10.10;2.13;;;14.30;99.90;;;;;;5039607;28;20124;-62
2023/03/13 11:09:58;;;;;;;10.43;2.35;;;14.50;99.90;;;;;;5051981;28;20041;-62
2023/03/13 11:12:23;;;;;;;5.85;2.22;;;14.50;99.90;;;;;;5052926;28;20029;-62
2023/03/13 11:14:59;;;;;;;5.45;1.90;;;14.50;99.90;;;;;;5036441;28;20052;-63
2023/03/13 11:17:39;;;;;;;8.57;1.90;;;14.60;99.90;;;;;;5035058;28;20084;-62
2023/03/13 11:20:26;;;;;;;4.72;1.75;;;14.80;99.90;;;;;;5046195;28;20486;-63
2023/03/13 11:23:25;;;;;;;3.63;1.75;;;14.90;99.90;;;;;;5047025;28;20071;-62
2023/03/13 11:26:15;;;;;;;6.55;1.60;;;15.00;99.90;;;;;;5049819;28;20127;-62
2023/03/13 11:29:04;;;;;;;4.38;1.65;;;15.30;99.90;;;;;;5031091;28;20679;-62
2023/03/13 11:31:45;;;;;;;7.63;2.25;;;15.60;99.90;;;;;;5028042;28;20068;-62
2023/03/13 11:34:11;;;;;;;3.22;1.42;;;15.80;99.90;;;;;;5036911;28;20041;-62
2023/03/13 11:36:45;;;;;;;5.13;2.03;;;16.10;99.90;;;;;;5044968;28;20037;-63
2023/03/13 11:39:25;;;;;;;3.67;1.52;;;16.30;99.90;;;;;;5035813;28;20094;-62
2023/03/13 11:41:56;;;;;;;3.60;1.50;;;16.30;99.90;;;;;;5039667;28;20080;-62
2023/03/13 11:44:29;;;;;;;9.73;2.22;;;16.50;99.90;;;;;;5051822;28;20037;-62
2023/03/13 11:47:13;;;;;;;12.48;2.22;;;16.50;99.90;;;;;;5051480;28;20041;-62
2023/03/13 11:49:57;;;;;;;7.28;1.70;;;16.60;99.90;;;;;;5046062;28;20033;-62
2023/03/13 11:52:55;;;;;;;5.82;1.80;;;16.50;99.90;;;;;;5049640;28;20036;-62
2023/03/13 11:55:38;;;;;;;6.32;1.70;;;16.40;99.90;;;;;;5038831;28;20071;-62
2023/03/13 11:58:27;;;;;;;3.92;1.38;;;16.40;99.90;;;;;;5055871;28;20048;-63
2023/03/13 12:01:10;;;;;;;6.85;1.65;;;16.40;99.90;;;;;;5051826;28;20124;-62
2023/03/13 12:03:54;;;;;;;3.85;1.70;;;16.40;99.90;;;;;;5045785;28;20041;-62
2023/03/13 12:06:24;;;;;;;7.10;2.15;;;16.40;99.90;;;;;;5033602;28;20045;-62
2023/03/13 12:09:03;;;;;;;8.40;1.77;;;16.60;99.90;;;;;;5041017;28;20067;-62
2023/03/13 12:11:36;;;;;;;8.20;2.00;;;16.80;99.90;;;;;;5046166;28;20037;-63
2023/03/13 12:14:22;;;;;;;8.38;2.05;;;16.80;99.90;;;;;;5044298;28;20064;-62
2023/03/13 12:16:53;;;;;;;6.25;2.05;;;16.80;99.90;;;;;;5050963;28;20037;-62
2023/03/13 12:19:41;;;;;;;6.45;1.63;;;16.70;99.90;;;;;;5035682;28;20107;-62
2023/03/13 12:22:16;;;;;;;7.07;2.00;;;16.70;99.90;;;;;;5040388;28;20048;-62
2023/03/13 12:24:58;;;;;;;5.43;1.50;;;16.80;99.90;;;;;;5045100;28;20179;-62
2023/03/13 12:27:31;;;;;;;6.00;1.67;;;16.70;99.90;;;;;;5058151;28;20491;-62
2023/03/13 12:30:34;;;;;;;8.13;1.63;;;16.70;99.90;;;;;;5051298;28;20025;-62
2023/03/13 12:33:28;;;;;;;5.90;1.90;;;16.90;99.90;;;;;;5048173;28;20063;-62
2023/03/13 12:36:32;;;;;;;9.18;2.33;;;16.90;99.90;;;;;;5027150;28;20043;-62
2023/03/13 12:39:21;;;;;;;9.60;1.67;;;16.90;99.90;;;;;;5039878;28;20429;-60
2023/03/13 12:42:15;;;;;;;4.72;1.52;;;17.00;99.90;;;;;;5033268;28;20048;-62
2023/03/13 12:44:40;;;;;;;3.72;1.70;;;17.00;99.90;;;;;;5029738;28;20041;-60
2023/03/13 12:47:26;;;;;;;6.70;1.80;;;17.10;99.90;;;;;;5048215;28;20119;-61
2023/03/13 12:50:18;;;;;;;9.23;2.10;;;17.10;99.90;;;;;;5033634;28;20041;-63
2023/03/13 12:53:02;;;;;;;7.18;1.63;;;17.20;99.90;;;;;;5047524;28;20475;-60
2023/03/13 12:56:03;;;;;;;7.43;2.05;;;17.10;99.90;;;;;;5050506;28;20045;-61
2023/03/13 12:58:44;;;;;;;6.18;2.20;;;17.10;99.90;;;;;;5038602;28;20045;-61
2023/03/13 13:01:24;;;;;;;6.70;1.80;;;17.10;99.90;;;;;;5043082;28;20044;-62
2023/03/13 13:04:03;;;;;;;7.85;2.17;;;17.20;99.90;;;;;;5045527;28;20124;-61